Portada
METAR-TAF:

METAR-TAF

Aeroports :

Àqaba, Jordània

latitud: 29-38N, longitud: 035-01E, altitud: 53 m

Observació

L'informe es va fer fa 31 minuts, a les 05:00 UTC
Vent 4 kt del Nord
Temperatura 23°C
Humitat 61%
Pressió 1011 hPa
Visibilitat 10 km o més
sense núvols per sota de 1500 mi sense presència de cumulonimbus.

METAR: OJAQ 270500Z 36004KT CAVOK 23/15 Q1011 NOSIG

Hora: 08:31 (05:31 UTC)

Pronòstic

L'informe es va fer fa 6 hores i 41 minuts, a les 22:50 UTC
Pronòstic vàlid del 27 a les 00 UTC al 28 a les 06 UTC
Vent 2 kt amb direcció variable
Visibilitat 10 km o més
sense núvols per sota de 1500 mi sense presència de cumulonimbus.
Evolucionant progressivament
l' 27 a les 06 UTC al 27 a les 08 UTC
Vent 10 kt del Nord
Temporalment
l' 27 a les 12 UTC al 27 a les 18 UTC
Vent 10 kt del Sud/Sud-Oest

TAF: OJAQ 262250Z 2700/2806 VRB02KT CAVOK BECMG 2706/2708 36010KT TEMPO 2712/2718 20010KT

Observacions i pronòstics meteorològics de més de 4000 aeroports (METAR i TAF).

Les estacions disponibles són els punts grocs i vermells al mapa.

Posi el ratolí al punt desitjat per veure el nom de l'estació.

Feu clic per veure les observacions i els pronòstics meteorològics.

Per canviar el mapa: feu clic els botons verds amb una creu de color negre per apropar; al botó verd amb un guió per allunyar la imatge; o en les fletxes verdes per a mapes adjacents.


METAR-TAF: